Time;durP1;ratioP1;P1;durP2;ratioP2;P2;SDS_P1;SDS_P2;PMS_P1;PMS_P2;Temp;Humidity;BMP_temperature;BMP_pressure;BME280_temperature;BME280_humidity;BME280_pressure;Samples;Min_cycle;Max_cycle;Signal;HPM_P1;HPM_P2
2020/12/06 00:02:05;;;;;;;41.50;19.93;;;;;;;1.14;87.42;100087.06;5094883;28;20453;-60
2020/12/06 00:04:32;;;;;;;36.87;20.40;;;;;;;1.16;87.08;100090.59;5097205;28;20449;-61
2020/12/06 00:06:59;;;;;;;40.67;20.58;;;;;;;1.20;87.03;100090.03;5090901;28;20459;-61
2020/12/06 00:09:29;;;;;;;50.60;20.97;;;;;;;1.11;87.18;100081.75;5097598;28;20297;-62
2020/12/06 00:11:58;;;;;;;42.70;19.77;;;;;;;1.22;87.36;100085.03;5095608;28;20453;-60
2020/12/06 00:14:25;;;;;;;38.43;19.03;;;;;;;1.17;87.10;100077.09;5096636;28;20467;-62
2020/12/06 00:16:52;;;;;;;39.83;20.23;;;;;;;1.08;87.48;100084.13;5095178;28;20537;-61
2020/12/06 00:19:19;;;;;;;39.00;19.27;;;;;;;1.14;87.40;100087.06;5097226;28;20470;-62
2020/12/06 00:21:45;;;;;;;36.50;19.47;;;;;;;1.15;87.16;100088.84;5091836;28;20919;-61
2020/12/06 00:24:12;;;;;;;40.33;19.27;;;;;;;1.19;86.95;100079.75;5097103;28;20451;-60
2020/12/06 00:26:39;;;;;;;39.20;18.90;;;;;;;1.05;87.76;100067.00;5095494;28;20444;-61
2020/12/06 00:29:05;;;;;;;41.53;21.00;;;;;;;1.13;87.47;100064.09;5097372;28;20458;-62
2020/12/06 00:31:32;;;;;;;40.90;21.20;;;;;;;1.21;87.27;100051.13;5095597;28;20459;-61
2020/12/06 00:33:59;;;;;;;42.17;19.57;;;;;;;1.13;87.71;100046.31;5096706;28;20457;-62
2020/12/06 00:36:26;;;;;;;41.63;20.90;;;;;;;1.01;87.98;100046.31;5090661;28;20945;-62
2020/12/06 00:38:52;;;;;;;38.93;19.10;;;;;;;1.20;87.64;100041.75;5097416;28;20830;-62
2020/12/06 00:41:19;;;;;;;39.90;18.40;;;;;;;1.04;87.46;100033.84;5095247;28;20489;-62
2020/12/06 00:43:46;;;;;;;38.00;20.00;;;;;;;1.13;87.64;100028.50;5096858;28;20486;-62
2020/12/06 00:46:19;;;;;;;40.47;20.70;;;;;;;1.05;87.59;100025.44;5094181;28;20461;-61
2020/12/06 00:48:46;;;;;;;35.50;18.75;;;;;;;1.04;87.83;100028.78;5097062;28;20474;-61
2020/12/06 00:51:13;;;;;;;39.50;19.33;;;;;;;1.13;87.63;100026.84;5097039;28;20244;-62
2020/12/06 00:53:41;;;;;;;37.47;19.08;;;;;;;1.13;87.47;100019.22;5096347;28;20932;-61
2020/12/06 00:56:07;;;;;;;39.27;20.93;;;;;;;1.08;87.72;100020.59;5096583;28;20200;-61
2020/12/06 00:58:34;;;;;;;38.33;19.20;;;;;;;1.03;88.00;100001.59;5095769;28;20452;-62
2020/12/06 01:01:00;;;;;;;43.50;20.10;;;;;;;0.94;88.26;99996.78;5096982;28;20527;-62
2020/12/06 01:03:27;;;;;;;41.50;19.75;;;;;;;0.99;88.17;99989.47;5095935;28;20515;-62
2020/12/06 01:05:54;;;;;;;36.83;17.43;;;;;;;1.12;88.66;99994.59;5096472;28;20530;-61
2020/12/06 01:08:21;;;;;;;36.97;18.87;;;;;;;1.40;88.08;99999.00;5095540;28;20477;-62
2020/12/06 01:10:47;;;;;;;36.77;19.07;;;;;;;1.32;87.55;100011.19;5096752;28;20485;-62
2020/12/06 01:13:14;;;;;;;41.47;19.73;;;;;;;1.18;87.80;100015.31;5095138;28;21035;-62
2020/12/06 01:15:40;;;;;;;39.47;18.80;;;;;;;1.58;87.26;100034.03;5096153;28;20457;-62
2020/12/06 01:18:07;;;;;;;37.70;17.83;;;;;;;1.65;86.23;100045.50;5093600;28;20323;-61
2020/12/06 01:20:33;;;;;;;37.53;17.07;;;;;;;1.43;86.27;100055.13;5096279;28;20432;-61
2020/12/06 01:23:00;;;;;;;37.17;18.80;;;;;;;1.38;86.06;100056.47;5083646;28;20767;-61
2020/12/06 01:25:28;;;;;;;35.23;18.43;;;;;;;1.29;86.30;100061.81;5096118;28;20531;-60
2020/12/06 01:27:54;;;;;;;33.13;17.33;;;;;;;1.35;86.22;100057.13;5093942;28;20744;-62
2020/12/06 01:30:21;;;;;;;34.60;17.67;;;;;;;1.19;87.09;100059.44;5096305;28;20460;-61
2020/12/06 01:32:47;;;;;;;41.00;19.37;;;;;;;1.17;87.45;100058.41;5092347;28;20535;-60
2020/12/06 01:35:14;;;;;;;39.07;19.53;;;;;;;1.19;87.63;100052.66;5095819;28;20452;-62
2020/12/06 01:37:40;;;;;;;38.87;19.97;;;;;;;1.24;87.27;100047.03;5093840;28;20967;-62
2020/12/06 01:40:07;;;;;;;39.60;19.60;;;;;;;1.20;87.41;100049.38;5096120;28;20552;-62
2020/12/06 01:42:34;;;;;;;45.47;19.63;;;;;;;1.24;87.26;100047.03;5093380;28;20461;-61
2020/12/06 01:45:02;;;;;;;41.07;19.50;;;;;;;1.17;87.46;100035.56;5095851;28;20544;-61
2020/12/06 01:47:31;;;;;;;36.50;19.87;;;;;;;1.32;86.89;100026.44;5093866;28;20452;-61
2020/12/06 01:49:57;;;;;;;35.87;19.40;;;;;;;1.23;87.44;100019.84;5096217;28;20425;-61
2020/12/06 01:52:26;;;;;;;36.53;19.37;;;;;;;1.18;87.62;100007.69;5083118;28;20457;-61
2020/12/06 01:54:53;;;;;;;39.10;19.20;;;;;;;1.21;87.78;100007.94;5095025;28;20539;-62
2020/12/06 01:57:20;;;;;;;38.03;20.33;;;;;;;1.14;87.90;100018.47;5094690;28;20541;-60
2020/12/06 01:59:47;;;;;;;38.53;19.90;;;;;;;1.17;87.85;100056.78;5095906;28;20948;-62
2020/12/06 02:02:14;;;;;;;37.90;19.60;;;;;;;1.11;87.95;100091.94;5093956;28;20482;-61
2020/12/06 02:04:41;;;;;;;37.27;20.33;;;;;;;1.15;87.81;100093.91;5093709;28;20564;-61
2020/12/06 02:07:07;;;;;;;39.65;20.00;;;;;;;1.18;87.47;100083.94;5094291;28;20541;-60
2020/12/06 02:09:34;;;;;;;40.57;19.73;;;;;;;1.11;87.41;100074.16;5090857;28;20210;-62
2020/12/06 02:12:06;;;;;;;42.80;20.20;;;;;;;1.04;87.77;100074.50;5094262;28;20485;-62
2020/12/06 02:14:32;;;;;;;38.83;19.70;;;;;;;1.12;87.56;100062.34;5095257;28;20235;-61
2020/12/06 02:17:00;;;;;;;40.65;21.15;;;;;;;1.00;88.03;100064.88;5093391;28;20569;-61
2020/12/06 02:19:26;;;;;;;42.47;20.43;;;;;;;1.11;88.11;100063.97;5095913;28;20276;-62
2020/12/06 02:21:54;;;;;;;45.40;20.95;;;;;;;1.02;87.96;100056.59;5095021;28;20823;-61
2020/12/06 02:24:21;;;;;;;41.70;20.47;;;;;;;1.04;87.98;100052.50;5095311;28;20216;-62
2020/12/06 02:26:49;;;;;;;43.30;20.97;;;;;;;1.10;87.67;100039.34;5094696;28;20474;-59
2020/12/06 02:29:15;;;;;;;40.70;19.67;;;;;;;1.06;87.95;100043.34;5095442;28;20436;-61
2020/12/06 02:31:42;;;;;;;38.33;19.73;;;;;;;1.05;87.77;100048.31;5090056;28;20484;-60
2020/12/06 02:34:09;;;;;;;37.50;20.50;;;;;;;1.05;87.95;100040.69;5095366;28;20508;-59
2020/12/06 02:36:36;;;;;;;41.20;20.77;;;;;;;1.01;88.11;100033.63;5094556;28;20462;-60
2020/12/06 02:39:05;;;;;;;46.80;20.10;;;;;;;1.03;88.18;100032.94;5095141;28;20200;-61
2020/12/06 02:41:36;;;;;;;45.47;20.37;;;;;;;1.13;87.98;100031.06;5094709;28;21589;-61
2020/12/06 02:44:03;;;;;;;42.40;20.67;;;;;;;1.07;87.88;100028.97;5095155;28;20537;-62
2020/12/06 02:46:30;;;;;;;43.40;20.50;;;;;;;1.14;88.01;100035.34;5093679;28;20458;-61
2020/12/06 02:48:56;;;;;;;39.63;20.10;;;;;;;1.25;87.36;100026.81;5095390;28;20923;-61
2020/12/06 02:51:23;;;;;;;35.40;19.10;;;;;;;1.35;86.91;100013.91;5094611;28;20440;-63
2020/12/06 02:53:50;;;;;;;37.47;19.40;;;;;;;1.18;87.36;100022.97;5095205;28;20580;-61
2020/12/06 02:56:17;;;;;;;46.03;20.80;;;;;;;1.23;87.65;100020.72;5094130;28;20463;-63
2020/12/06 02:58:43;;;;;;;41.67;20.53;;;;;;;1.33;87.23;100017.16;5095175;28;20478;-60
2020/12/06 03:01:10;;;;;;;40.33;19.60;;;;;;;1.30;87.46;100022.03;5095469;28;20531;-63
2020/12/06 03:03:37;;;;;;;41.07;20.47;;;;;;;1.33;87.31;100034.97;5094504;28;20694;-62
2020/12/06 03:06:04;;;;;;;99.50;42.93;;;;;;;1.63;88.45;100055.56;5098669;28;20453;-62
2020/12/06 03:08:30;;;;;;;117.73;49.17;;;;;;;1.68;88.95;100069.47;5090295;28;20941;-62
2020/12/06 03:10:57;;;;;;;119.60;53.93;;;;;;;1.84;88.75;100070.50;5098087;28;20462;-61
2020/12/06 03:13:25;;;;;;;48.87;22.57;;;;;;;1.68;86.65;100066.03;5096814;28;20574;-61
2020/12/06 03:15:51;;;;;;;43.00;21.47;;;;;;;1.66;86.38;100063.41;5098395;28;20762;-61
2020/12/06 03:18:17;;;;;;;53.23;24.67;;;;;;;1.79;87.29;100061.69;5096769;28;20533;-62
2020/12/06 03:20:44;;;;;;;54.10;25.80;;;;;;;1.80;87.48;100064.28;5098944;28;20522;-62
2020/12/06 03:23:10;;;;;;;49.17;24.83;;;;;;;1.75;87.55;100064.00;5096979;28;20473;-61
2020/12/06 03:25:37;;;;;;;43.80;21.60;;;;;;;1.78;87.15;100065.88;5098115;28;20464;-62
2020/12/06 03:28:03;;;;;;;48.10;23.10;;;;;;;1.91;87.83;100052.31;5097469;28;20450;-63
2020/12/06 03:30:31;;;;;;;49.20;23.77;;;;;;;1.92;86.79;100059.16;5098628;28;20934;-62
2020/12/06 03:32:57;;;;;;;48.13;22.77;;;;;;;1.97;86.96;100059.44;5097167;28;20449;-62
2020/12/06 03:35:24;;;;;;;42.07;20.57;;;;;;;1.93;86.18;100050.72;5098061;28;20479;-63
2020/12/06 03:37:51;;;;;;;43.20;20.20;;;;;;;1.80;86.73;100048.16;5096963;28;20470;-62
2020/12/06 03:40:17;;;;;;;38.53;20.47;;;;;;;1.87;86.59;100053.78;5098444;28;20429;-63
2020/12/06 03:42:44;;;;;;;42.47;20.90;;;;;;;1.89;86.77;100051.31;5097052;28;20474;-62
2020/12/06 03:45:10;;;;;;;45.43;21.33;;;;;;;1.97;86.33;100042.53;5098182;28;20455;-62
2020/12/06 03:47:38;;;;;;;42.23;20.90;;;;;;;1.96;86.64;100028.06;5096523;28;20453;-60
2020/12/06 03:50:04;;;;;;;45.70;20.80;;;;;;;1.94;86.57;100014.31;5098313;28;20553;-62
2020/12/06 03:52:31;;;;;;;43.93;20.57;;;;;;;1.85;87.43;100011.19;5097164;28;20470;-62
2020/12/06 03:54:57;;;;;;;43.77;21.37;;;;;;;1.84;87.63;100006.91;5097681;28;20580;-61
2020/12/06 03:57:24;;;;;;;38.07;20.20;;;;;;;1.74;88.07;100005.38;5096975;28;20472;-63
2020/12/06 03:59:51;;;;;;;42.63;20.87;;;;;;;1.93;87.92;100015.09;5098103;28;20767;-62
2020/12/06 04:02:17;;;;;;;39.80;21.37;;;;;;;1.91;87.72;100028.50;5097370;28;20477;-63
2020/12/06 04:04:45;;;;;;;49.27;22.17;;;;;;;2.05;87.56;100027.72;5097675;28;20569;-61
2020/12/06 04:07:11;;;;;;;41.13;21.10;;;;;;;2.04;87.51;100031.06;5095642;28;20473;-62
2020/12/06 04:09:38;;;;;;;47.40;21.83;;;;;;;2.01;87.63;100026.66;5098049;28;20486;-61
2020/12/06 04:12:04;;;;;;;48.50;22.40;;;;;;;2.11;87.53;100012.84;5095653;28;20481;-61
2020/12/06 04:14:31;;;;;;;49.20;21.47;;;;;;;2.18;87.37;99998.88;5097217;28;20569;-61
2020/12/06 04:16:57;;;;;;;44.00;20.70;;;;;;;2.10;87.48;99994.97;5095805;28;20478;-62
2020/12/06 04:19:24;;;;;;;42.63;21.10;;;;;;;2.10;87.49;99987.34;5097115;28;20492;-61
2020/12/06 04:21:51;;;;;;;42.50;21.40;;;;;;;2.14;87.73;99984.19;5088422;28;20462;-63
2020/12/06 04:24:18;;;;;;;45.30;21.17;;;;;;;2.18;87.67;99968.31;5097413;28;20471;-61
2020/12/06 04:26:44;;;;;;;44.13;22.10;;;;;;;2.20;87.49;99965.88;5096290;28;20519;-63
2020/12/06 04:29:11;;;;;;;42.30;20.80;;;;;;;2.18;87.69;99965.78;5097933;28;20544;-63
2020/12/06 04:31:37;;;;;;;53.60;23.50;;;;;;;2.19;87.77;99954.81;5094997;28;20519;-61
2020/12/06 04:34:04;;;;;;;47.00;22.33;;;;;;;2.23;87.89;99955.88;5096774;28;20460;-61
2020/12/06 04:36:31;;;;;;;46.83;22.20;;;;;;;2.28;87.70;99960.50;5095990;28;20475;-62
2020/12/06 04:38:58;;;;;;;42.80;21.50;;;;;;;2.28;87.67;99945.22;5097488;28;20497;-61
2020/12/06 04:41:25;;;;;;;47.10;22.17;;;;;;;2.32;87.84;99956.47;5096220;28;20436;-63
2020/12/06 04:43:52;;;;;;;43.50;23.33;;;;;;;2.35;87.69;99955.78;5097075;28;20502;-62
2020/12/06 04:46:19;;;;;;;47.17;23.23;;;;;;;2.40;87.54;99954.38;5095589;28;20764;-62
2020/12/06 04:49:03;;;;;;;48.23;23.63;;;;;;;2.42;87.56;99956.22;5097193;28;20460;-62
2020/12/06 04:51:39;;;;;;;47.83;23.63;;;;;;;2.54;87.25;99956.13;5094091;28;20516;-62
2020/12/06 04:54:07;;;;;;;47.10;23.27;;;;;;;2.58;87.16;99957.19;5096580;28;20576;-61
2020/12/06 04:56:34;;;;;;;47.70;24.17;;;;;;;2.46;87.91;99954.75;5095629;28;20462;-61
2020/12/06 04:59:02;;;;;;;54.10;25.27;;;;;;;2.50;87.80;99946.53;5096995;28;20521;-61
2020/12/06 05:01:33;;;;;;;50.73;23.60;;;;;;;2.50;88.02;99935.44;5096043;28;20481;-61
2020/12/06 05:04:04;;;;;;;52.33;24.70;;;;;;;2.55;87.64;99946.78;5096752;28;20474;-63
2020/12/06 05:06:30;;;;;;;51.23;24.43;;;;;;;2.54;87.83;99951.03;5095505;28;20549;-61
2020/12/06 05:08:57;;;;;;;55.60;25.90;;;;;;;2.68;87.30;99940.78;5096906;28;20466;-63
2020/12/06 05:11:26;;;;;;;50.77;24.70;;;;;;;2.61;87.41;99941.22;5095596;28;20908;-63
2020/12/06 05:13:52;;;;;;;48.27;23.47;;;;;;;2.60;87.68;99942.00;5096627;28;20891;-63
2020/12/06 05:16:21;;;;;;;45.07;21.57;;;;;;;2.49;88.18;99918.41;5095170;28;20840;-61
2020/12/06 05:18:47;;;;;;;47.47;24.20;;;;;;;2.58;88.12;99920.63;5096721;28;20560;-62
2020/12/06 05:21:14;;;;;;;49.57;23.80;;;;;;;2.62;87.79;99925.13;5095611;28;20454;-62
2020/12/06 05:23:41;;;;;;;49.17;24.83;;;;;;;2.67;87.82;99939.91;5096162;28;20562;-62
2020/12/06 05:26:08;;;;;;;50.93;23.80;;;;;;;2.80;87.07;99940.63;5095956;28;20516;-62
2020/12/06 05:28:35;;;;;;;46.63;24.50;;;;;;;2.78;87.17;99945.63;5094971;28;20529;-62
2020/12/06 05:31:02;;;;;;;49.57;23.63;;;;;;;2.79;87.03;99949.97;5096656;28;20450;-63
2020/12/06 05:33:29;;;;;;;48.93;24.17;;;;;;;2.74;87.47;99955.56;5094925;28;20473;-61
2020/12/06 05:36:00;;;;;;;54.30;24.93;;;;;;;2.73;87.36;99947.06;5096218;28;20548;-62
2020/12/06 05:38:27;;;;;;;50.03;24.07;;;;;;;2.74;87.46;99945.38;5095113;28;20506;-62
2020/12/06 05:40:57;;;;;;;50.93;24.30;;;;;;;2.68;87.87;99934.00;5096283;28;20460;-61
2020/12/06 05:43:27;;;;;;;49.87;23.53;;;;;;;2.74;87.15;99933.53;5094976;28;20765;-62
2020/12/06 05:46:05;;;;;;;45.80;22.97;;;;;;;2.70;87.68;99929.00;5096022;28;20480;-63
2020/12/06 05:48:32;;;;;;;54.13;22.80;;;;;;;2.60;87.77;99932.69;5094988;28;20469;-63
2020/12/06 05:51:00;;;;;;;48.40;24.83;;;;;;;2.67;87.98;99919.53;5096251;28;20497;-62
2020/12/06 05:53:28;;;;;;;50.90;25.03;;;;;;;2.74;87.94;99920.78;5094805;28;20531;-62
2020/12/06 05:55:57;;;;;;;53.47;26.40;;;;;;;2.84;87.29;99922.22;5096115;28;20565;-63
2020/12/06 05:58:24;;;;;;;51.97;24.00;;;;;;;2.75;87.68;99917.44;5094606;28;20516;-62
2020/12/06 06:00:50;;;;;;;51.47;25.00;;;;;;;2.76;87.37;99910.69;5093845;28;20537;-62
2020/12/06 06:03:24;;;;;;;47.77;23.40;;;;;;;2.81;87.70;99916.91;5094970;28;20486;-62
2020/12/06 06:05:53;;;;;;;49.93;24.07;;;;;;;2.86;87.22;99912.97;5095556;28;20965;-63
2020/12/06 06:08:21;;;;;;;49.53;23.27;;;;;;;2.93;87.19;99898.94;5095016;28;20925;-61
2020/12/06 06:10:53;;;;;;;47.10;25.03;;;;;;;2.99;86.97;99906.94;5095722;28;20436;-61
2020/12/06 06:13:21;;;;;;;45.93;23.23;;;;;;;2.92;87.46;99904.84;5094696;28;20919;-62
2020/12/06 06:15:48;;;;;;;48.43;24.00;;;;;;;2.98;87.48;99910.28;5095578;28;20573;-62
2020/12/06 06:18:15;;;;;;;54.90;25.60;;;;;;;2.97;87.40;99903.41;5094699;28;20485;-63
2020/12/06 06:20:43;;;;;;;52.47;24.27;;;;;;;2.97;87.53;99905.97;5095739;28;20454;-62
2020/12/06 06:23:11;;;;;;;58.57;25.70;;;;;;;2.94;87.72;99898.16;5094740;28;20812;-62
2020/12/06 06:25:38;;;;;;;45.07;23.37;;;;;;;2.90;87.87;99894.53;5095374;28;20445;-61
2020/12/06 06:28:04;;;;;;;50.33;22.93;;;;;;;3.02;87.64;99890.97;5094067;28;20489;-62
2020/12/06 06:30:31;;;;;;;49.93;25.17;;;;;;;3.00;87.57;99898.50;5095976;28;20465;-61
2020/12/06 06:32:57;;;;;;;49.40;23.03;;;;;;;3.00;87.45;99903.59;5094458;28;20573;-62
2020/12/06 06:35:24;;;;;;;48.03;22.50;;;;;;;2.91;87.93;99900.50;5095143;28;20793;-62
2020/12/06 06:37:52;;;;;;;50.63;22.93;;;;;;;2.96;87.89;99883.81;5094657;28;20561;-62
2020/12/06 06:40:26;;;;;;;55.50;24.73;;;;;;;2.90;88.33;99884.34;5099530;28;20549;-62
2020/12/06 06:42:54;;;;;;;48.20;24.30;;;;;;;2.91;88.19;99888.66;5097978;28;20485;-62
2020/12/06 06:45:20;;;;;;;50.43;23.93;;;;;;;2.92;88.14;99879.34;5099121;28;20505;-60
2020/12/06 06:47:47;;;;;;;49.07;23.70;;;;;;;3.03;87.85;99885.94;5098273;28;20861;-63
2020/12/06 06:50:15;;;;;;;45.93;23.43;;;;;;;2.96;88.15;99891.47;5099677;28;20453;-62
2020/12/06 06:52:43;;;;;;;48.33;23.20;;;;;;;2.90;88.57;99886.91;5098339;28;20498;-61
2020/12/06 06:55:10;;;;;;;50.30;24.57;;;;;;;3.00;88.42;99882.31;5099059;28;20486;-61
2020/12/06 06:57:40;;;;;;;42.77;22.10;;;;;;;2.97;88.36;99872.81;5098141;28;20561;-62
2020/12/06 07:00:06;;;;;;;43.80;21.97;;;;;;;2.89;88.78;99884.25;5099363;28;20458;-63
2020/12/06 07:02:36;;;;;;;57.33;25.80;;;;;;;3.01;88.49;99882.41;5097975;28;20502;-61
2020/12/06 07:05:06;;;;;;;51.60;24.20;;;;;;;3.01;88.46;99878.97;5098828;28;20473;-62
2020/12/06 07:07:36;;;;;;;47.20;23.27;;;;;;;2.99;88.46;99866.16;5097930;28;20501;-62
2020/12/06 07:10:03;;;;;;;50.00;24.33;;;;;;;3.10;88.32;99864.22;5099217;28;20458;-62
2020/12/06 07:12:37;;;;;;;48.17;25.07;;;;;;;3.15;87.83;99872.13;5097799;28;20569;-61
2020/12/06 07:15:06;;;;;;;52.93;25.20;;;;;;;3.06;87.98;99869.94;5098176;28;20940;-62
2020/12/06 07:17:33;;;;;;;49.50;23.80;;;;;;;3.11;88.37;99868.53;5097629;28;20484;-62
2020/12/06 07:20:00;;;;;;;47.17;24.17;;;;;;;3.13;88.32;99868.63;5099026;28;20769;-63
2020/12/06 07:22:27;;;;;;;48.47;23.77;;;;;;;3.05;88.53;99881.81;5097704;28;20520;-62
2020/12/06 07:24:53;;;;;;;55.03;25.40;;;;;;;2.96;89.35;99878.72;5097902;28;20983;-62
2020/12/06 07:27:20;;;;;;;52.40;24.30;;;;;;;2.98;89.72;99877.16;5097554;28;20484;-61
2020/12/06 07:29:47;;;;;;;55.70;25.70;;;;;;;3.14;89.13;99867.84;5098870;28;20458;-63
2020/12/06 07:32:13;;;;;;;57.47;24.70;;;;;;;3.15;88.80;99850.09;5097209;28;20557;-61
2020/12/06 07:34:40;;;;;;;47.40;24.20;;;;;;;3.05;89.68;99856.34;5098166;28;20488;-62
2020/12/06 07:37:06;;;;;;;61.03;27.73;;;;;;;3.20;89.47;99850.34;5097320;28;20481;-61
2020/12/06 07:39:41;;;;;;;51.37;25.07;;;;;;;3.21;89.47;99850.44;5098650;28;20839;-62
2020/12/06 07:42:07;;;;;;;55.30;25.43;;;;;;;3.13;90.02;99845.69;5081167;28;20779;-63
2020/12/06 07:44:43;;;;;;;51.80;25.07;;;;;;;3.08;90.16;99861.59;5097821;28;20540;-63
2020/12/06 07:47:11;;;;;;;49.37;24.00;;;;;;;3.10;90.53;99854.94;5097080;28;20494;-61
2020/12/06 07:49:42;;;;;;;55.37;25.73;;;;;;;3.24;89.82;99852.28;5097911;28;20497;-61
2020/12/06 07:52:16;;;;;;;58.10;26.20;;;;;;;3.16;90.50;99848.41;5096814;28;20778;-62
2020/12/06 07:54:53;;;;;;;56.27;27.13;;;;;;;3.23;90.36;99837.78;5098053;28;20565;-61
2020/12/06 07:57:25;;;;;;;60.70;25.57;;;;;;;3.26;90.29;99837.03;5096957;28;20501;-62
2020/12/06 07:59:52;;;;;;;53.77;26.47;;;;;;;3.28;90.31;99827.84;5098280;28;20458;-62
2020/12/06 08:02:21;;;;;;;57.03;26.83;;;;;;;3.29;90.46;99839.78;5096688;28;20539;-61
2020/12/06 08:04:48;;;;;;;53.50;24.70;;;;;;;3.20;90.84;99845.25;5097479;28;20469;-63
2020/12/06 08:07:18;;;;;;;62.23;27.57;;;;;;;3.36;90.55;99847.88;5096755;28;20552;-62
2020/12/06 08:09:45;;;;;;;58.93;25.87;;;;;;;3.43;90.41;99845.66;5097674;28;20439;-62
2020/12/06 08:12:12;;;;;;;57.50;26.90;;;;;;;3.45;90.09;99837.31;5096789;28;20477;-63
2020/12/06 08:14:39;;;;;;;63.10;27.10;;;;;;;3.44;90.32;99845.72;5097247;28;20932;-62
2020/12/06 08:17:05;;;;;;;49.07;24.60;;;;;;;3.63;89.66;99847.66;5096145;28;20556;-62
2020/12/06 08:19:33;;;;;;;55.63;26.40;;;;;;;3.57;89.74;99842.22;5097849;28;20454;-61
2020/12/06 08:22:01;;;;;;;51.97;25.73;;;;;;;3.63;89.81;99837.44;5096269;28;20566;-62
2020/12/06 08:24:30;;;;;;;54.70;27.73;;;;;;;3.57;90.03;99826.91;5097469;28;20470;-62
2020/12/06 08:26:58;;;;;;;59.37;27.43;;;;;;;3.73;89.48;99837.94;5096299;28;20485;-61
2020/12/06 08:29:40;;;;;;;55.80;26.47;;;;;;;3.78;89.32;99831.41;5097716;28;20481;-62
2020/12/06 08:32:07;;;;;;;57.23;26.07;;;;;;;3.80;89.33;99834.94;5093772;28;20497;-61
2020/12/06 08:34:34;;;;;;;52.10;24.53;;;;;;;3.69;89.75;99830.94;5097130;28;20473;-63
2020/12/06 08:37:16;;;;;;;49.17;23.80;;;;;;;3.76;89.85;99833.88;5096047;28;20486;-63
2020/12/06 08:39:42;;;;;;;52.87;24.83;;;;;;;3.82;89.57;99830.78;5097485;28;20494;-62
2020/12/06 08:42:13;;;;;;;53.43;25.07;;;;;;;3.82;89.67;99827.34;5096027;28;20477;-62
2020/12/06 08:44:53;;;;;;;55.53;25.27;;;;;;;3.86;89.65;99822.53;5096828;28;20470;-61
2020/12/06 08:47:20;;;;;;;58.57;26.07;;;;;;;3.90;89.44;99824.41;5095952;28;20583;-62
2020/12/06 08:50:10;;;;;;;51.50;25.90;;;;;;;4.02;88.89;99830.97;5097592;28;20458;-61
2020/12/06 08:52:36;;;;;;;58.70;25.23;;;;;;;3.96;89.21;99825.56;5095891;28;20543;-61
2020/12/06 08:55:27;;;;;;;56.30;24.97;;;;;;;4.06;88.88;99809.94;5096404;28;20565;-62
2020/12/06 08:57:54;;;;;;;47.87;23.57;;;;;;;4.10;88.80;99793.97;5095298;28;20505;-62
2020/12/06 09:00:24;;;;;;;50.90;25.03;;;;;;;4.08;88.87;99784.47;5097078;28;20450;-62
2020/12/06 09:02:51;;;;;;;59.03;25.87;;;;;;;4.08;88.83;99789.56;5095093;28;20797;-63
2020/12/06 09:05:18;;;;;;;48.33;24.27;;;;;;;4.09;88.99;99771.78;5096455;28;20470;-62
2020/12/06 09:07:45;;;;;;;46.03;23.33;;;;;;;4.03;89.36;99771.47;5095649;28;20557;-63
2020/12/06 09:10:12;;;;;;;50.87;24.13;;;;;;;3.99;89.46;99778.09;5096939;28;20454;-62
2020/12/06 09:12:38;;;;;;;50.23;24.50;;;;;;;4.21;88.87;99786.00;5095171;28;20474;-62
2020/12/06 09:15:06;;;;;;;46.70;24.43;;;;;;;4.20;89.13;99785.09;5095969;28;20581;-62
2020/12/06 09:17:33;;;;;;;50.20;23.30;;;;;;;4.30;88.59;99789.00;5095271;28;20509;-62
2020/12/06 09:20:00;;;;;;;46.77;24.07;;;;;;;4.23;88.95;99789.50;5096322;28;20454;-63
2020/12/06 09:22:27;;;;;;;49.33;24.80;;;;;;;4.31;88.80;99780.56;5093920;28;20916;-62
2020/12/06 09:24:54;;;;;;;52.63;25.83;;;;;;;4.32;88.89;99769.56;5096364;28;20532;-61
2020/12/06 09:27:21;;;;;;;48.37;24.30;;;;;;;4.24;89.10;99775.91;5090338;28;20481;-62
2020/12/06 09:29:47;;;;;;;49.17;23.60;;;;;;;4.30;88.93;99782.25;5096633;28;20746;-62
2020/12/06 09:32:14;;;;;;;49.53;24.23;;;;;;;4.34;89.19;99778.16;5094874;28;20565;-61
2020/12/06 09:34:40;;;;;;;51.80;22.70;;;;;;;4.36;88.94;99768.88;5096044;28;20573;-62
2020/12/06 09:37:07;;;;;;;49.53;24.00;;;;;;;4.44;88.83;99776.94;5095046;28;20784;-62
2020/12/06 09:39:35;;;;;;;47.10;22.83;;;;;;;4.60;87.99;99776.03;5096446;28;20552;-63
2020/12/06 09:42:01;;;;;;;48.73;23.87;;;;;;;4.53;88.30;99768.88;5094473;28;20485;-63
2020/12/06 09:44:28;;;;;;;47.37;23.93;;;;;;;4.51;88.77;99770.50;5095859;28;20474;-62
2020/12/06 09:46:56;;;;;;;50.23;23.40;;;;;;;4.49;88.75;99762.75;5094657;28;20480;-62
2020/12/06 09:49:23;;;;;;;43.17;22.23;;;;;;;4.59;88.54;99738.53;5096111;28;20553;-62
2020/12/06 09:51:49;;;;;;;50.37;25.10;;;;;;;4.56;88.78;99729.03;5095037;28;20930;-61
2020/12/06 09:54:16;;;;;;;54.13;24.27;;;;;;;4.55;89.02;99721.28;5095846;28;20477;-62
2020/12/06 09:56:43;;;;;;;43.83;22.33;;;;;;;4.60;88.63;99709.63;5094830;28;20505;-61
2020/12/06 09:59:09;;;;;;;51.33;24.53;;;;;;;4.65;88.57;99691.94;5095923;28;20468;-63
2020/12/06 10:01:36;;;;;;;49.77;23.90;;;;;;;4.72;88.75;99696.59;5094566;28;20470;-61
2020/12/06 10:04:02;;;;;;;45.97;23.50;;;;;;;4.78;88.58;99708.75;5095632;28;20481;-61
2020/12/06 10:06:29;;;;;;;51.37;23.73;;;;;;;4.68;88.69;99728.75;5095070;28;20537;-63
2020/12/06 10:08:55;;;;;;;48.17;24.13;;;;;;;4.78;88.37;99731.75;5096175;28;20735;-63
2020/12/06 10:11:23;;;;;;;54.00;25.10;;;;;;;4.82;88.43;99726.00;5094694;28;20557;-61
2020/12/06 10:13:51;;;;;;;49.30;23.60;;;;;;;4.91;88.01;99726.44;5097272;28;20486;-63
2020/12/06 10:16:18;;;;;;;42.40;22.20;;;;;;;4.93;88.01;99718.84;5097863;28;20505;-63
2020/12/06 10:18:44;;;;;;;68.60;30.60;;;;;;;4.98;87.78;99728.47;5100175;28;20486;-61
2020/12/06 10:21:13;;;;;;;63.50;31.40;;;;;;;5.07;87.68;99724.63;5099793;28;20512;-62
2020/12/06 10:23:40;;;;;;;52.90;26.80;;;;;;;5.14;87.23;99711.31;5099696;28;20458;-61
2020/12/06 10:26:06;;;;;;;52.37;26.60;;;;;;;5.09;87.76;99705.13;5099597;28;20449;-62
2020/12/06 10:28:33;;;;;;;123.60;51.67;;;;;;;5.12;87.81;99731.72;5098596;28;20516;-62
2020/12/06 10:31:00;;;;;;;76.03;33.17;;;;;;;5.18;87.88;99745.59;5099947;28;20490;-61
2020/12/06 10:33:27;;;;;;;57.30;25.20;;;;;;;5.19;87.10;99732.88;5098386;28;20569;-62
2020/12/06 10:35:53;;;;;;;60.43;29.30;;;;;;;5.04;87.61;99721.91;5099341;28;20508;-62
2020/12/06 10:38:20;;;;;;;65.20;31.43;;;;;;;5.14;87.17;99716.44;5098396;28;20933;-63
2020/12/06 10:40:46;;;;;;;65.17;30.33;;;;;;;5.04;87.51;99701.47;5099694;28;20456;-62
2020/12/06 10:43:13;;;;;;;54.83;24.67;;;;;;;5.20;86.97;99701.38;5097971;28;20556;-62
2020/12/06 10:45:40;;;;;;;64.37;29.93;;;;;;;5.14;86.50;99701.09;5099145;28;20939;-62
2020/12/06 10:48:08;;;;;;;51.40;26.20;;;;;;;5.23;86.11;99719.41;5098356;28;20505;-61
2020/12/06 10:50:34;;;;;;;60.77;29.93;;;;;;;5.13;86.70;99730.03;5099683;28;20451;-61
2020/12/06 10:53:02;;;;;;;53.53;26.43;;;;;;;5.10;86.58;99738.44;5098432;28;20605;-62
2020/12/06 10:55:28;;;;;;;63.97;30.17;;;;;;;5.19;85.88;99743.13;5098177;28;20503;-61
2020/12/06 10:57:55;;;;;;;55.63;26.50;;;;;;;5.51;85.94;99735.16;5098098;28;20477;-62
2020/12/06 11:00:22;;;;;;;52.33;24.70;;;;;;;5.68;85.04;99743.59;5092152;28;20493;-63
2020/12/06 11:02:48;;;;;;;55.50;25.27;;;;;;;5.73;84.98;99744.69;5096848;28;20470;-62
2020/12/06 11:05:16;;;;;;;49.77;24.30;;;;;;;5.75;84.22;99729.41;5098417;28;20506;-62
2020/12/06 11:07:42;;;;;;;48.50;24.60;;;;;;;5.74;84.17;99713.16;5097677;28;20472;-63
2020/12/06 11:10:09;;;;;;;49.40;24.83;;;;;;;5.93;83.65;99717.44;5098836;28;20464;-61
2020/12/06 11:12:39;;;;;;;57.17;26.13;;;;;;;5.66;83.57;99711.97;5097713;28;20488;-61
2020/12/06 11:15:05;;;;;;;49.27;24.37;;;;;;;5.66;83.59;99704.28;5098259;28;20573;-60
2020/12/06 11:17:34;;;;;;;53.80;26.37;;;;;;;5.58;84.20;99710.75;5095908;28;20561;-62
2020/12/06 11:20:03;;;;;;;64.53;30.50;;;;;;;5.50;84.51;99688.22;5098869;28;20753;-62
2020/12/06 11:22:30;;;;;;;51.30;26.10;;;;;;;5.44;84.35;99682.81;5089569;28;20481;-62
2020/12/06 11:24:57;;;;;;;49.43;24.50;;;;;;;5.42;84.14;99684.44;5097961;28;20481;-62